sensor_id;sensor_type;location;lat;lon;timestamp;pressure;altitude;pressure_sealevel;temperature
78859;BMP280;68210;52.032;4.634;2023-08-17T00:00:50;101988.59;;;19.67
78859;BMP280;68210;52.032;4.634;2023-08-17T00:02:51;101976.31;;;19.57
78859;BMP280;68210;52.032;4.634;2023-08-17T00:04:52;101978.97;;;19.47
78859;BMP280;68210;52.032;4.634;2023-08-17T00:06:52;101978.94;;;19.40
78859;BMP280;68210;52.032;4.634;2023-08-17T00:08:52;101990.72;;;19.41
78859;BMP280;68210;52.032;4.634;2023-08-17T00:10:53;101981.28;;;19.42
78859;BMP280;68210;52.032;4.634;2023-08-17T00:12:53;101982.47;;;19.44
78859;BMP280;68210;52.032;4.634;2023-08-17T00:14:54;101981.72;;;19.47
78859;BMP280;68210;52.032;4.634;2023-08-17T00:16:54;101982.56;;;19.54
78859;BMP280;68210;52.032;4.634;2023-08-17T00:18:54;101977.94;;;19.65
78859;BMP280;68210;52.032;4.634;2023-08-17T00:20:55;101984.22;;;19.62
78859;BMP280;68210;52.032;4.634;2023-08-17T00:22:56;101987.25;;;19.50
78859;BMP280;68210;52.032;4.634;2023-08-17T00:24:56;101986.97;;;19.62
78859;BMP280;68210;52.032;4.634;2023-08-17T00:26:57;101978.59;;;19.48
78859;BMP280;68210;52.032;4.634;2023-08-17T00:28:57;101977.72;;;19.38
78859;BMP280;68210;52.032;4.634;2023-08-17T00:30:59;101976.53;;;19.35
78859;BMP280;68210;52.032;4.634;2023-08-17T00:33:00;101976.53;;;19.39
78859;BMP280;68210;52.032;4.634;2023-08-17T00:35:00;101980.94;;;19.47
78859;BMP280;68210;52.032;4.634;2023-08-17T00:37:00;101996.47;;;19.29
78859;BMP280;68210;52.032;4.634;2023-08-17T00:39:01;101995.00;;;19.35
78859;BMP280;68210;52.032;4.634;2023-08-17T00:41:01;101985.13;;;19.34
78859;BMP280;68210;52.032;4.634;2023-08-17T00:43:02;101987.84;;;19.27
78859;BMP280;68210;52.032;4.634;2023-08-17T00:45:02;101975.38;;;19.40
78859;BMP280;68210;52.032;4.634;2023-08-17T00:47:03;101971.50;;;19.48
78859;BMP280;68210;52.032;4.634;2023-08-17T00:49:06;101978.59;;;19.48
78859;BMP280;68210;52.032;4.634;2023-08-17T00:51:06;101976.53;;;19.39
78859;BMP280;68210;52.032;4.634;2023-08-17T00:53:07;101982.94;;;19.53
78859;BMP280;68210;52.032;4.634;2023-08-17T00:55:13;101981.72;;;19.47
78859;BMP280;68210;52.032;4.634;2023-08-17T00:57:13;101964.34;;;19.36
78859;BMP280;68210;52.032;4.634;2023-08-17T00:59:15;101979.97;;;19.29
78859;BMP280;68210;52.032;4.634;2023-08-17T01:01:15;101974.63;;;19.43
78859;BMP280;68210;52.032;4.634;2023-08-17T01:03:17;101968.28;;;19.39
78859;BMP280;68210;52.032;4.634;2023-08-17T01:05:18;101967.97;;;19.50
78859;BMP280;68210;52.032;4.634;2023-08-17T01:07:18;101977.75;;;19.45
78859;BMP280;68210;52.032;4.634;2023-08-17T01:09:19;101974.25;;;19.48
78859;BMP280;68210;52.032;4.634;2023-08-17T01:11:36;101975.44;;;19.47
78859;BMP280;68210;52.032;4.634;2023-08-17T01:13:48;101982.38;;;19.34
78859;BMP280;68210;52.032;4.634;2023-08-17T01:15:52;101980.81;;;19.33
78859;BMP280;68210;52.032;4.634;2023-08-17T01:18:00;101986.19;;;19.19
78859;BMP280;68210;52.032;4.634;2023-08-17T01:20:03;101979.59;;;19.27
78859;BMP280;68210;52.032;4.634;2023-08-17T01:22:05;101976.00;;;19.23
78859;BMP280;68210;52.032;4.634;2023-08-17T01:24:06;101976.75;;;19.17
78859;BMP280;68210;52.032;4.634;2023-08-17T01:26:07;101984.69;;;19.25
78859;BMP280;68210;52.032;4.634;2023-08-17T01:28:07;101981.47;;;19.16
78859;BMP280;68210;52.032;4.634;2023-08-17T01:30:09;101991.34;;;19.24
78859;BMP280;68210;52.032;4.634;2023-08-17T01:32:29;101975.97;;;19.19
78859;BMP280;68210;52.032;4.634;2023-08-17T01:34:34;101974.41;;;19.18
78859;BMP280;68210;52.032;4.634;2023-08-17T01:36:42;101983.09;;;19.24
78859;BMP280;68210;52.032;4.634;2023-08-17T01:38:44;101972.03;;;19.17
78859;BMP280;68210;52.032;4.634;2023-08-17T01:40:46;101976.66;;;19.10
78859;BMP280;68210;52.032;4.634;2023-08-17T01:42:48;101965.78;;;19.23
78859;BMP280;68210;52.032;4.634;2023-08-17T01:44:49;101968.94;;;19.22
78859;BMP280;68210;52.032;4.634;2023-08-17T01:46:50;101966.75;;;19.41
78859;BMP280;68210;52.032;4.634;2023-08-17T01:48:50;101958.59;;;19.51
78859;BMP280;68210;52.032;4.634;2023-08-17T01:50:51;101964.84;;;19.48
78859;BMP280;68210;52.032;4.634;2023-08-17T01:52:51;101960.50;;;19.48
78859;BMP280;68210;52.032;4.634;2023-08-17T01:54:51;101957.28;;;19.39
78859;BMP280;68210;52.032;4.634;2023-08-17T01:56:52;101956.50;;;19.35
78859;BMP280;68210;52.032;4.634;2023-08-17T01:58:52;101964.34;;;19.40
78859;BMP280;68210;52.032;4.634;2023-08-17T02:00:52;101961.59;;;19.36
78859;BMP280;68210;52.032;4.634;2023-08-17T02:02:53;101966.53;;;19.17
78859;BMP280;68210;52.032;4.634;2023-08-17T02:04:53;101962.13;;;19.06
78859;BMP280;68210;52.032;4.634;2023-08-17T02:06:53;101965.97;;;19.01
78859;BMP280;68210;52.032;4.634;2023-08-17T02:08:54;101963.22;;;19.01
78859;BMP280;68210;52.032;4.634;2023-08-17T02:10:54;101967.97;;;19.04
78859;BMP280;68210;52.032;4.634;2023-08-17T02:12:54;101960.81;;;18.96
78859;BMP280;68210;52.032;4.634;2023-08-17T02:14:55;101965.56;;;18.99
78859;BMP280;68210;52.032;4.634;2023-08-17T02:16:55;101957.94;;;19.22
78859;BMP280;68210;52.032;4.634;2023-08-17T02:18:56;101960.63;;;19.15
78859;BMP280;68210;52.032;4.634;2023-08-17T02:20:56;101961.66;;;19.00
78859;BMP280;68210;52.032;4.634;2023-08-17T02:22:56;101958.94;;;19.04
78859;BMP280;68210;52.032;4.634;2023-08-17T02:24:57;101949.13;;;19.03
78859;BMP280;68210;52.032;4.634;2023-08-17T02:26:57;101970.31;;;19.02
78859;BMP280;68210;52.032;4.634;2023-08-17T02:28:57;101962.41;;;18.97
78859;BMP280;68210;52.032;4.634;2023-08-17T02:30:58;101964.88;;;19.09
78859;BMP280;68210;52.032;4.634;2023-08-17T02:32:59;101962.44;;;19.01
78859;BMP280;68210;52.032;4.634;2023-08-17T02:34:59;101962.25;;;19.19
78859;BMP280;68210;52.032;4.634;2023-08-17T02:37:00;101956.50;;;19.35
78859;BMP280;68210;52.032;4.634;2023-08-17T02:39:00;101954.88;;;19.30
78859;BMP280;68210;52.032;4.634;2023-08-17T02:41:00;101954.13;;;19.37
78859;BMP280;68210;52.032;4.634;2023-08-17T02:43:01;101944.72;;;19.38
78859;BMP280;68210;52.032;4.634;2023-08-17T02:45:01;101946.22;;;19.32
78859;BMP280;68210;52.032;4.634;2023-08-17T02:47:01;101942.59;;;19.21
78859;BMP280;68210;52.032;4.634;2023-08-17T02:49:02;101944.38;;;19.00
78859;BMP280;68210;52.032;4.634;2023-08-17T02:51:02;101948.00;;;18.75
78859;BMP280;68210;52.032;4.634;2023-08-17T02:53:03;101941.75;;;18.78
78859;BMP280;68210;52.032;4.634;2023-08-17T02:55:03;101947.19;;;18.71
78859;BMP280;68210;52.032;4.634;2023-08-17T02:57:04;101942.97;;;18.84
78859;BMP280;68210;52.032;4.634;2023-08-17T02:59:04;101945.84;;;18.90
78859;BMP280;68210;52.032;4.634;2023-08-17T03:01:05;101937.91;;;18.86
78859;BMP280;68210;52.032;4.634;2023-08-17T03:03:05;101944.44;;;18.71
78859;BMP280;68210;52.032;4.634;2023-08-17T03:05:06;101946.03;;;18.75
78859;BMP280;68210;52.032;4.634;2023-08-17T03:07:07;101944.31;;;18.93
78859;BMP280;68210;52.032;4.634;2023-08-17T03:09:07;101950.50;;;18.87
78859;BMP280;68210;52.032;4.634;2023-08-17T03:11:08;101945.59;;;18.70
78859;BMP280;68210;52.032;4.634;2023-08-17T03:13:10;101957.97;;;18.54
78859;BMP280;68210;52.032;4.634;2023-08-17T03:15:10;101948.28;;;18.63
78859;BMP280;68210;52.032;4.634;2023-08-17T03:17:10;101950.59;;;18.61
78859;BMP280;68210;52.032;4.634;2023-08-17T03:19:11;101963.56;;;18.60
78859;BMP280;68210;52.032;4.634;2023-08-17T03:21:12;101942.09;;;18.73
78859;BMP280;68210;52.032;4.634;2023-08-17T03:23:13;101948.31;;;18.66
78859;BMP280;68210;52.032;4.634;2023-08-17T03:25:13;101950.41;;;18.80
78859;BMP280;68210;52.032;4.634;2023-08-17T03:27:13;101941.41;;;18.83
78859;BMP280;68210;52.032;4.634;2023-08-17T03:29:14;101951.19;;;18.77
78859;BMP280;68210;52.032;4.634;2023-08-17T03:31:14;101951.09;;;18.70
78859;BMP280;68210;52.032;4.634;2023-08-17T03:33:14;101946.31;;;18.63
78859;BMP280;68210;52.032;4.634;2023-08-17T03:35:15;101950.28;;;18.66
78859;BMP280;68210;52.032;4.634;2023-08-17T03:37:15;101951.44;;;18.65
78859;BMP280;68210;52.032;4.634;2023-08-17T03:39:16;101946.63;;;18.55
78859;BMP280;68210;52.032;4.634;2023-08-17T03:41:16;101942.97;;;18.44
78859;BMP280;68210;52.032;4.634;2023-08-17T03:43:16;101944.56;;;18.49
78859;BMP280;68210;52.032;4.634;2023-08-17T03:45:17;101947.84;;;18.61
78859;BMP280;68210;52.032;4.634;2023-08-17T03:47:18;101946.31;;;18.63
78859;BMP280;68210;52.032;4.634;2023-08-17T03:49:18;101946.69;;;18.62
78859;BMP280;68210;52.032;4.634;2023-08-17T03:51:19;101944.66;;;18.56
78859;BMP280;68210;52.032;4.634;2023-08-17T03:53:19;101946.38;;;18.34
78859;BMP280;68210;52.032;4.634;2023-08-17T03:55:20;101935.09;;;18.14
78859;BMP280;68210;52.032;4.634;2023-08-17T03:57:20;101930.22;;;18.29
78859;BMP280;68210;52.032;4.634;2023-08-17T03:59:21;101937.19;;;18.24
78859;BMP280;68210;52.032;4.634;2023-08-17T04:01:21;101933.97;;;18.15
78859;BMP280;68210;52.032;4.634;2023-08-17T04:03:22;101935.63;;;18.23
78859;BMP280;68210;52.032;4.634;2023-08-17T04:05:22;101932.34;;;18.14
78859;BMP280;68210;52.032;4.634;2023-08-17T04:07:23;101933.97;;;18.15
78859;BMP280;68210;52.032;4.634;2023-08-17T04:09:23;101940.38;;;18.00
78859;BMP280;68210;52.032;4.634;2023-08-17T04:11:24;101931.53;;;18.10
78859;BMP280;68210;52.032;4.634;2023-08-17T04:13:24;101939.31;;;18.04
78859;BMP280;68210;52.032;4.634;2023-08-17T04:15:24;101955.56;;;17.91
78859;BMP280;68210;52.032;4.634;2023-08-17T04:17:25;101950.97;;;17.98
78859;BMP280;68210;52.032;4.634;2023-08-17T04:19:25;101942.50;;;17.84
78859;BMP280;68210;52.032;4.634;2023-08-17T04:21:26;101939.91;;;17.94
78859;BMP280;68210;52.032;4.634;2023-08-17T04:23:26;101943.78;;;17.90
78859;BMP280;68210;52.032;4.634;2023-08-17T04:25:26;101953.25;;;17.93
78859;BMP280;68210;52.032;4.634;2023-08-17T04:27:27;101951.75;;;17.98
78859;BMP280;68210;52.032;4.634;2023-08-17T04:29:27;101948.63;;;18.00
78859;BMP280;68210;52.032;4.634;2023-08-17T04:31:27;101951.31;;;17.96
78859;BMP280;68210;52.032;4.634;2023-08-17T04:33:28;101957.50;;;17.90
78859;BMP280;68210;52.032;4.634;2023-08-17T04:35:28;101939.69;;;17.77
78859;BMP280;68210;52.032;4.634;2023-08-17T04:37:29;101952.94;;;17.72
78859;BMP280;68210;52.032;4.634;2023-08-17T04:39:29;101949.91;;;17.80
78859;BMP280;68210;52.032;4.634;2023-08-17T04:41:30;101943.69;;;17.83
78859;BMP280;68210;52.032;4.634;2023-08-17T04:43:30;101965.44;;;17.69
78859;BMP280;68210;52.032;4.634;2023-08-17T04:45:31;101953.28;;;17.70
78859;BMP280;68210;52.032;4.634;2023-08-17T04:47:31;101956.75;;;17.67
78859;BMP280;68210;52.032;4.634;2023-08-17T04:49:31;101951.47;;;17.81
78859;BMP280;68210;52.032;4.634;2023-08-17T04:51:32;101954.97;;;17.78
78859;BMP280;68210;52.032;4.634;2023-08-17T04:53:32;101962.38;;;17.74
78859;BMP280;68210;52.032;4.634;2023-08-17T04:55:33;101960.09;;;17.80
78859;BMP280;68210;52.032;4.634;2023-08-17T04:57:33;101957.19;;;17.69
78859;BMP280;68210;52.032;4.634;2023-08-17T04:59:34;101956.41;;;17.69
78859;BMP280;68210;52.032;4.634;2023-08-17T05:01:34;101946.00;;;17.81
78859;BMP280;68210;52.032;4.634;2023-08-17T05:03:35;101946.75;;;17.78
78859;BMP280;68210;52.032;4.634;2023-08-17T05:05:36;101937.88;;;17.88
78859;BMP280;68210;52.032;4.634;2023-08-17T05:07:37;101922.56;;;17.87
78859;BMP280;68210;52.032;4.634;2023-08-17T05:09:37;101925.56;;;17.79
78859;BMP280;68210;52.032;4.634;2023-08-17T05:11:38;101922.06;;;17.78
78859;BMP280;68210;52.032;4.634;2023-08-17T05:13:38;101933.81;;;17.79
78859;BMP280;68210;52.032;4.634;2023-08-17T05:15:39;101925.22;;;17.80
78859;BMP280;68210;52.032;4.634;2023-08-17T05:17:40;101909.03;;;17.72
78859;BMP280;68210;52.032;4.634;2023-08-17T05:19:40;101932.00;;;17.90
78859;BMP280;68210;52.032;4.634;2023-08-17T05:21:42;101922.63;;;17.91
78859;BMP280;68210;52.032;4.634;2023-08-17T05:23:42;101925.72;;;17.89
78859;BMP280;68210;52.032;4.634;2023-08-17T05:25:46;101927.94;;;18.06
78859;BMP280;68210;52.032;4.634;2023-08-17T05:27:47;101934.72;;;18.12
78859;BMP280;68210;52.032;4.634;2023-08-17T05:29:49;101924.25;;;18.24
78859;BMP280;68210;52.032;4.634;2023-08-17T05:31:49;101937.03;;;18.10
78859;BMP280;68210;52.032;4.634;2023-08-17T05:33:49;101939.59;;;18.25
78859;BMP280;68210;52.032;4.634;2023-08-17T05:35:54;101939.88;;;18.17
78859;BMP280;68210;52.032;4.634;2023-08-17T05:37:54;101935.53;;;18.16
78859;BMP280;68210;52.032;4.634;2023-08-17T05:39:54;101933.06;;;18.07
78859;BMP280;68210;52.032;4.634;2023-08-17T05:41:55;101937.19;;;18.24
78859;BMP280;68210;52.032;4.634;2023-08-17T05:43:55;101932.88;;;18.23
78859;BMP280;68210;52.032;4.634;2023-08-17T05:45:57;101936.44;;;18.26
78859;BMP280;68210;52.032;4.634;2023-08-17T05:47:59;101940.88;;;18.34
78859;BMP280;68210;52.032;4.634;2023-08-17T05:49:59;101936.78;;;18.54
78859;BMP280;68210;52.032;4.634;2023-08-17T05:52:00;101934.56;;;18.66
78859;BMP280;68210;52.032;4.634;2023-08-17T05:54:00;101943.19;;;18.32
78859;BMP280;68210;52.032;4.634;2023-08-17T05:56:00;101954.53;;;18.27
78859;BMP280;68210;52.032;4.634;2023-08-17T05:58:01;101958.00;;;18.25
78859;BMP280;68210;52.032;4.634;2023-08-17T06:00:02;101960.47;;;18.33
78859;BMP280;68210;52.032;4.634;2023-08-17T06:02:03;101948.34;;;18.37
78859;BMP280;68210;52.032;4.634;2023-08-17T06:04:04;101962.09;;;18.37
78859;BMP280;68210;52.032;4.634;2023-08-17T06:06:05;101958.75;;;18.22
78859;BMP280;68210;52.032;4.634;2023-08-17T06:08:05;101953.78;;;18.30
78859;BMP280;68210;52.032;4.634;2023-08-17T06:10:06;101954.25;;;18.36
78859;BMP280;68210;52.032;4.634;2023-08-17T06:12:07;101956.25;;;18.42
78859;BMP280;68210;52.032;4.634;2023-08-17T06:14:07;101962.63;;;18.46
78859;BMP280;68210;52.032;4.634;2023-08-17T06:16:07;101949.38;;;18.55
78859;BMP280;68210;52.032;4.634;2023-08-17T06:18:08;101953.81;;;18.66
78859;BMP280;68210;52.032;4.634;2023-08-17T06:20:08;101954.13;;;18.61
78859;BMP280;68210;52.032;4.634;2023-08-17T06:22:10;101954.00;;;18.51
78859;BMP280;68210;52.032;4.634;2023-08-17T06:24:10;101973.47;;;18.36
78859;BMP280;68210;52.032;4.634;2023-08-17T06:26:10;101971.94;;;18.38
78859;BMP280;68210;52.032;4.634;2023-08-17T06:28:11;101977.75;;;18.33
78859;BMP280;68210;52.032;4.634;2023-08-17T06:30:11;101963.69;;;18.38
78859;BMP280;68210;52.032;4.634;2023-08-17T06:32:12;101961.75;;;18.42
78859;BMP280;68210;52.032;4.634;2023-08-17T06:34:12;101968.63;;;18.58
78859;BMP280;68210;52.032;4.634;2023-08-17T06:36:13;101972.91;;;18.56
78859;BMP280;68210;52.032;4.634;2023-08-17T06:38:16;101969.84;;;18.61
78859;BMP280;68210;52.032;4.634;2023-08-17T06:40:17;101969.88;;;18.64
78859;BMP280;68210;52.032;4.634;2023-08-17T06:42:17;101958.13;;;18.67
78859;BMP280;68210;52.032;4.634;2023-08-17T06:44:17;101954.41;;;18.86
78859;BMP280;68210;52.032;4.634;2023-08-17T06:46:18;101958.28;;;18.81
78859;BMP280;68210;52.032;4.634;2023-08-17T06:48:18;101956.28;;;19.11
78859;BMP280;68210;52.032;4.634;2023-08-17T06:50:18;101963.78;;;19.17
78859;BMP280;68210;52.032;4.634;2023-08-17T06:52:19;101953.13;;;19.12
78859;BMP280;68210;52.032;4.634;2023-08-17T06:54:19;101945.44;;;19.31
78859;BMP280;68210;52.032;4.634;2023-08-17T06:56:20;101951.69;;;19.25
78859;BMP280;68210;52.032;4.634;2023-08-17T06:58:20;101953.31;;;19.29
78859;BMP280;68210;52.032;4.634;2023-08-17T07:00:21;101947.06;;;19.39
78859;BMP280;68210;52.032;4.634;2023-08-17T07:02:21;101941.22;;;19.41
78859;BMP280;68210;52.032;4.634;2023-08-17T07:04:22;101956.25;;;19.53
78859;BMP280;68210;52.032;4.634;2023-08-17T07:06:23;101951.41;;;19.40
78859;BMP280;68210;52.032;4.634;2023-08-17T07:08:23;101951.22;;;19.69
78859;BMP280;68210;52.032;4.634;2023-08-17T07:10:24;101951.13;;;19.55
78859;BMP280;68210;52.032;4.634;2023-08-17T07:12:24;101949.16;;;19.52
78859;BMP280;68210;52.032;4.634;2023-08-17T07:14:25;101953.97;;;19.69
78859;BMP280;68210;52.032;4.634;2023-08-17T07:16:25;101942.28;;;19.79
78859;BMP280;68210;52.032;4.634;2023-08-17T07:18:26;101955.34;;;19.89
78859;BMP280;68210;52.032;4.634;2023-08-17T07:20:26;101963.66;;;20.03
78859;BMP280;68210;52.032;4.634;2023-08-17T07:22:26;101957.44;;;20.12
78859;BMP280;68210;52.032;4.634;2023-08-17T07:24:27;101962.84;;;19.95
78859;BMP280;68210;52.032;4.634;2023-08-17T07:26:27;101955.13;;;20.28
78859;BMP280;68210;52.032;4.634;2023-08-17T07:28:28;101949.34;;;20.50
78859;BMP280;68210;52.032;4.634;2023-08-17T07:30:28;101967.06;;;20.53
78859;BMP280;68210;52.032;4.634;2023-08-17T07:32:29;101970.72;;;20.74
78859;BMP280;68210;52.032;4.634;2023-08-17T07:34:29;101956.47;;;20.62
78859;BMP280;68210;52.032;4.634;2023-08-17T07:36:33;101969.88;;;20.67
78859;BMP280;68210;52.032;4.634;2023-08-17T07:38:33;101954.97;;;20.95
78859;BMP280;68210;52.032;4.634;2023-08-17T07:40:34;101960.53;;;21.30
78859;BMP280;68210;52.032;4.634;2023-08-17T07:42:34;101966.06;;;21.26
78859;BMP280;68210;52.032;4.634;2023-08-17T07:44:34;101971.59;;;21.71
78859;BMP280;68210;52.032;4.634;2023-08-17T07:46:35;101958.16;;;21.87
78859;BMP280;68210;52.032;4.634;2023-08-17T07:48:35;101948.69;;;21.81
78859;BMP280;68210;52.032;4.634;2023-08-17T07:50:36;101949.47;;;21.85
78859;BMP280;68210;52.032;4.634;2023-08-17T07:52:36;101944.81;;;21.47
78859;BMP280;68210;52.032;4.634;2023-08-17T07:54:36;101948.75;;;21.60
78859;BMP280;68210;52.032;4.634;2023-08-17T07:56:37;101940.84;;;21.62
78859;BMP280;68210;52.032;4.634;2023-08-17T07:58:37;101932.19;;;21.50
78859;BMP280;68210;52.032;4.634;2023-08-17T08:00:37;101932.94;;;21.30
78859;BMP280;68210;52.032;4.634;2023-08-17T08:02:38;101944.81;;;21.33
78859;BMP280;68210;52.032;4.634;2023-08-17T08:04:38;101948.72;;;21.43
78859;BMP280;68210;52.032;4.634;2023-08-17T08:06:39;101942.84;;;21.55
78859;BMP280;68210;52.032;4.634;2023-08-17T08:08:40;101935.31;;;21.28
78859;BMP280;68210;52.032;4.634;2023-08-17T08:10:40;101938.50;;;21.57
78859;BMP280;68210;52.032;4.634;2023-08-17T08:12:41;101940.88;;;21.41
78859;BMP280;68210;52.032;4.634;2023-08-17T08:14:41;101948.69;;;21.32
78859;BMP280;68210;52.032;4.634;2023-08-17T08:16:42;101953.44;;;21.29
78859;BMP280;68210;52.032;4.634;2023-08-17T08:18:42;101951.06;;;21.72
78859;BMP280;68210;52.032;4.634;2023-08-17T08:20:42;101945.47;;;22.06
78859;BMP280;68210;52.032;4.634;2023-08-17T08:22:43;101944.69;;;22.06
78859;BMP280;68210;52.032;4.634;2023-08-17T08:24:43;101946.28;;;21.96
78859;BMP280;68210;52.032;4.634;2023-08-17T08:26:44;101945.09;;;22.15
78859;BMP280;68210;52.032;4.634;2023-08-17T08:28:44;101940.72;;;22.21
78859;BMP280;68210;52.032;4.634;2023-08-17T08:30:45;101950.25;;;21.85
78859;BMP280;68210;52.032;4.634;2023-08-17T08:32:45;101940.78;;;22.00
78859;BMP280;68210;52.032;4.634;2023-08-17T08:34:45;101939.22;;;21.85
78859;BMP280;68210;52.032;4.634;2023-08-17T08:36:46;101927.38;;;21.95
78859;BMP280;68210;52.032;4.634;2023-08-17T08:38:47;101928.84;;;22.30
78859;BMP280;68210;52.032;4.634;2023-08-17T08:40:48;101928.78;;;22.37
78859;BMP280;68210;52.032;4.634;2023-08-17T08:42:48;101927.34;;;22.05
78859;BMP280;68210;52.032;4.634;2023-08-17T08:44:49;101922.13;;;22.31
78859;BMP280;68210;52.032;4.634;2023-08-17T08:46:52;101915.97;;;22.71
78859;BMP280;68210;52.032;4.634;2023-08-17T08:48:54;101930.78;;;23.04
78859;BMP280;68210;52.032;4.634;2023-08-17T08:50:55;101913.97;;;22.78
78859;BMP280;68210;52.032;4.634;2023-08-17T08:52:59;101919.03;;;22.90
78859;BMP280;68210;52.032;4.634;2023-08-17T08:55:05;101921.75;;;23.00
78859;BMP280;68210;52.032;4.634;2023-08-17T08:57:12;101902.91;;;23.28
78859;BMP280;68210;52.032;4.634;2023-08-17T08:59:14;101911.59;;;23.30
78859;BMP280;68210;52.032;4.634;2023-08-17T09:01:16;101929.53;;;23.16
78859;BMP280;68210;52.032;4.634;2023-08-17T09:03:16;101910.63;;;23.04
78859;BMP280;68210;52.032;4.634;2023-08-17T09:05:18;101915.75;;;23.09
78859;BMP280;68210;52.032;4.634;2023-08-17T09:07:19;101904.63;;;23.12
78859;BMP280;68210;52.032;4.634;2023-08-17T09:09:22;101907.50;;;23.02
78859;BMP280;68210;52.032;4.634;2023-08-17T09:11:23;101892.47;;;23.53
78859;BMP280;68210;52.032;4.634;2023-08-17T09:13:23;101897.41;;;23.25
78859;BMP280;68210;52.032;4.634;2023-08-17T09:15:24;101910.72;;;22.97
78859;BMP280;68210;52.032;4.634;2023-08-17T09:17:25;101910.09;;;23.22
78859;BMP280;68210;52.032;4.634;2023-08-17T09:19:26;101908.66;;;23.04
78859;BMP280;68210;52.032;4.634;2023-08-17T09:21:32;101905.94;;;23.48
78859;BMP280;68210;52.032;4.634;2023-08-17T09:23:33;101910.22;;;23.09
78859;BMP280;68210;52.032;4.634;2023-08-17T09:25:33;101911.84;;;23.03
78859;BMP280;68210;52.032;4.634;2023-08-17T09:27:36;101909.50;;;22.98
78859;BMP280;68210;52.032;4.634;2023-08-17T09:29:37;101900.78;;;23.03
78859;BMP280;68210;52.032;4.634;2023-08-17T09:31:39;101899.84;;;23.19
78859;BMP280;68210;52.032;4.634;2023-08-17T09:33:39;101919.47;;;23.35
78859;BMP280;68210;52.032;4.634;2023-08-17T09:35:41;101908.75;;;23.41
78859;BMP280;68210;52.032;4.634;2023-08-17T09:37:42;101909.06;;;23.53
78859;BMP280;68210;52.032;4.634;2023-08-17T09:39:42;101895.69;;;23.41
78859;BMP280;68210;52.032;4.634;2023-08-17T09:41:43;101890.28;;;23.27
78859;BMP280;68210;52.032;4.634;2023-08-17T09:43:45;101893.31;;;23.43
78859;BMP280;68210;52.032;4.634;2023-08-17T09:45:46;101896.56;;;23.75
78859;BMP280;68210;52.032;4.634;2023-08-17T09:47:49;101879.81;;;23.48
78859;BMP280;68210;52.032;4.634;2023-08-17T09:49:52;101871.34;;;23.26
78859;BMP280;68210;52.032;4.634;2023-08-17T09:51:52;101876.09;;;23.22
78859;BMP280;68210;52.032;4.634;2023-08-17T09:53:53;101871.28;;;23.29
78859;BMP280;68210;52.032;4.634;2023-08-17T09:55:54;101881.09;;;23.37
78859;BMP280;68210;52.032;4.634;2023-08-17T09:57:57;101864.25;;;23.21
78859;BMP280;68210;52.032;4.634;2023-08-17T09:59:57;101878.53;;;23.17
78859;BMP280;68210;52.032;4.634;2023-08-17T10:01:59;101865.47;;;23.20
78859;BMP280;68210;52.032;4.634;2023-08-17T10:04:00;101859.34;;;23.36
78859;BMP280;68210;52.032;4.634;2023-08-17T10:06:05;101872.69;;;23.48
78859;BMP280;68210;52.032;4.634;2023-08-17T10:08:15;101867.03;;;23.61
78859;BMP280;68210;52.032;4.634;2023-08-17T10:10:22;101879.91;;;23.38
78859;BMP280;68210;52.032;4.634;2023-08-17T10:12:24;101866.00;;;23.45
78859;BMP280;68210;52.032;4.634;2023-08-17T10:14:34;101865.41;;;23.67
78859;BMP280;68210;52.032;4.634;2023-08-17T10:16:44;101881.00;;;23.51
78859;BMP280;68210;52.032;4.634;2023-08-17T10:18:54;101867.19;;;23.44
78859;BMP280;68210;52.032;4.634;2023-08-17T10:21:00;101867.50;;;23.13
78859;BMP280;68210;52.032;4.634;2023-08-17T10:23:14;101868.44;;;22.96
78859;BMP280;68210;52.032;4.634;2023-08-17T10:25:15;101865.75;;;22.79
78859;BMP280;68210;52.032;4.634;2023-08-17T10:27:16;101845.88;;;22.98
78859;BMP280;68210;52.032;4.634;2023-08-17T10:29:17;101856.56;;;22.96
78859;BMP280;68210;52.032;4.634;2023-08-17T10:31:18;101861.22;;;23.06
78859;BMP280;68210;52.032;4.634;2023-08-17T10:33:20;101862.25;;;23.22
78859;BMP280;68210;52.032;4.634;2023-08-17T10:35:20;101856.44;;;23.13
78859;BMP280;68210;52.032;4.634;2023-08-17T10:37:21;101857.03;;;23.31
78859;BMP280;68210;52.032;4.634;2023-08-17T10:39:28;101858.72;;;23.21
78859;BMP280;68210;52.032;4.634;2023-08-17T10:41:29;101851.63;;;23.20
78859;BMP280;68210;52.032;4.634;2023-08-17T10:43:33;101862.09;;;22.96
78859;BMP280;68210;52.032;4.634;2023-08-17T10:45:35;101856.19;;;23.37
78859;BMP280;68210;52.032;4.634;2023-08-17T10:47:37;101851.31;;;23.51
78859;BMP280;68210;52.032;4.634;2023-08-17T10:49:38;101854.53;;;23.43
78859;BMP280;68210;52.032;4.634;2023-08-17T10:52:00;101871.34;;;23.22
78859;BMP280;68210;52.032;4.634;2023-08-17T10:54:02;101861.53;;;23.15
78859;BMP280;68210;52.032;4.634;2023-08-17T10:56:06;101861.78;;;23.30
78859;BMP280;68210;52.032;4.634;2023-08-17T10:58:07;101866.81;;;23.42
78859;BMP280;68210;52.032;4.634;2023-08-17T11:00:21;101856.78;;;23.18
78859;BMP280;68210;52.032;4.634;2023-08-17T11:02:32;101864.56;;;23.30
78859;BMP280;68210;52.032;4.634;2023-08-17T11:04:32;101856.34;;;23.20
78859;BMP280;68210;52.032;4.634;2023-08-17T11:06:35;101857.94;;;23.17
78859;BMP280;68210;52.032;4.634;2023-08-17T11:08:38;101865.72;;;23.33
78859;BMP280;68210;52.032;4.634;2023-08-17T11:10:41;101856.25;;;23.30
78859;BMP280;68210;52.032;4.634;2023-08-17T11:12:43;101857.94;;;23.17
78859;BMP280;68210;52.032;4.634;2023-08-17T11:14:44;101848.13;;;23.10
78859;BMP280;68210;52.032;4.634;2023-08-17T11:16:46;101857.97;;;23.14
78859;BMP280;68210;52.032;4.634;2023-08-17T11:18:47;101836.03;;;22.97
78859;BMP280;68210;52.032;4.634;2023-08-17T11:20:49;101846.66;;;23.02
78859;BMP280;68210;52.032;4.634;2023-08-17T11:22:50;101852.41;;;23.21
78859;BMP280;68210;52.032;4.634;2023-08-17T11:24:51;101842.25;;;23.08
78859;BMP280;68210;52.032;4.634;2023-08-17T11:26:51;101844.63;;;23.06
78859;BMP280;68210;52.032;4.634;2023-08-17T11:28:51;101835.09;;;23.10